Latest Weather Observations for St Helens

IDT60801

Issued at 2:41 pm EST Thursday 26 May 2022 (issued every 10 minutes, with the page automatically refreshed every 10 minutes)

About weather observations | Map of weather stations | Latest weather observations for TAS | Other Formats
Station Details ID: 092120 Name: ST HELENS AERODROME Lat: -41.34 Lon: 148.28 Height: 48.0 m
Data from the previous 72 hours. | See also: Recent months at St Helens
Date/Time
EST
Temp
°C
App
Temp
°C
Dew
Point
°C
Rel
Hum
%
Delta-T
°C
Wind Press
QNH
hPa
Press
MSL
hPa
Rain since
9am
mm
Dir  Spd
km/h
Gust
km/h
Spd
kts
Gust
kts
26/02:30pm 15.9 13.5 14.4 91 0.9 NNE 20 30 11 16 1016.0 1016.0 0.0
26/02:00pm 16.8 14.1 14.6 87 1.3 NNE 22 32 12 17 1016.2 1016.2 0.0
26/01:30pm 16.3 14.0 14.7 90 0.9 NNE 20 32 11 17 1016.4 1016.4 0.0
26/01:00pm 17.0 14.8 15.0 88 1.2 NNE 20 33 11 18 1016.7 1016.7 0.0
26/12:30pm 16.3 14.6 14.7 90 0.9 NNE 17 26 9 14 1017.2 1017.2 0.0
26/12:00pm 16.5 14.7 14.5 88 1.1 NNE 17 24 9 13 1017.6 1017.6 0.0
26/11:30am 16.3 14.8 14.3 88 1.1 NNE 15 20 8 11 1018.1 1018.1 0.0
26/11:00am 16.1 15.0 14.3 89 1.0 NNE 13 20 7 11 1018.7 1018.7 0.0
26/10:30am 15.3 15.3 14.3 94 0.6 NNW 7 11 4 6 1019.1 1019.1 0.0
26/10:00am 14.2 15.4 13.7 97 0.3 CALM 0 4 0 2 1019.2 1019.2 0.0
26/09:30am 13.1 12.3 12.8 98 0.2 NNW 9 11 5 6 1019.4 1019.4 0.0
26/09:27am 13.0 12.1 12.7 98 0.2 NNW 9 11 5 6 1019.4 1019.4 0.0
26/09:03am 12.8 13.2 12.5 98 0.2 WSW 2 7 1 4 1019.5 1019.5 0.0
26/09:00am 13.0 13.1 12.7 98 0.2 W 4 7 2 4 1019.5 1019.5 4.4
26/08:49am 12.5 12.4 12.2 98 0.2 NNW 4 9 2 5 1019.6 1019.6 4.4
26/08:30am 12.0 11.4 11.7 98 0.2 NNW 6 7 3 4 1019.7 1019.7 4.2
26/08:28am 11.7 11.0 11.4 98 0.2 NNW 6 7 3 4 1019.8 1019.8 3.2
26/08:00am 11.8 11.1 11.5 98 0.2 WNW 6 9 3 5 1019.7 1019.7 1.6
26/07:30am 10.1 10.1 9.8 98 0.2 CALM 0 7 0 4 1019.6 1019.6 1.6
26/07:13am 10.1 9.3 9.8 98 0.2 NW 4 11 2 6 1019.6 1019.6 1.6
26/07:00am 10.5 10.2 10.2 98 0.2 N 2 9 1 5 1019.5 1019.5 1.6
26/06:30am 10.0 10.0 9.7 98 0.2 CALM 0 6 0 3 1019.6 1019.6 1.6
26/06:00am 11.2 10.4 10.9 98 0.2 NW 6 13 3 7 1019.6 1019.6 1.6
26/05:30am 9.8 8.0 9.5 98 0.1 NNW 9 13 5 7 1019.9 1019.9 1.6
26/05:00am 10.0 8.8 9.7 98 0.2 NNW 6 11 3 6 1019.9 1019.9 1.4
26/04:49am 9.8 8.6 9.5 98 0.1 NNW 6 9 3 5 1019.9 1019.9 1.4
26/04:30am 9.7 9.6 9.4 98 0.1 CALM 0 6 0 3 1019.9 1019.9 1.4
26/04:24am 9.8 8.6 9.5 98 0.1 NW 6 9 3 5 1019.9 1019.9 1.4
26/04:00am 10.0 9.2 9.7 98 0.2 NW 4 7 2 4 1020.0 1020.0 1.4
26/03:30am 10.1 9.0 9.8 98 0.2 NW 6 7 3 4 1020.2 1020.2 1.4
26/03:28am 10.3 9.2 10.0 98 0.2 NW 6 7 3 4 1020.3 1020.3 1.4
26/03:00am 10.2 8.1 9.9 98 0.2 N 11 13 6 7 1020.7 1020.7 1.4
26/02:37am 10.3 8.3 10.0 98 0.2 NW 11 13 6 7 1021.0 1021.1 1.4
26/02:30am 10.3 8.3 10.0 98 0.2 NNW 11 13 6 7 1021.1 1021.2 1.4
26/02:27am 10.2 8.1 9.9 98 0.2 NNW 11 13 6 7 1021.1 1021.2 1.4
26/02:00am 10.1 8.0 9.8 98 0.2 NW 11 13 6 7 1021.2 1021.3 1.4
26/01:57am 10.1 8.0 9.8 98 0.2 NW 11 13 6 7 1021.3 1021.4 1.4
26/01:40am 9.9 8.7 9.6 98 0.2 NW 6 15 3 8 1021.3 1021.4 1.4
26/01:30am 9.8 7.6 9.5 98 0.1 NW 11 15 6 8 1021.3 1021.4 1.4
26/01:27am 9.9 7.8 9.6 98 0.2 NNW 11 15 6 8 1021.4 1021.5 1.4
26/01:14am 10.0 8.6 9.7 98 0.2 NW 7 11 4 6 1021.4 1021.5 1.4
26/01:00am 9.9 9.5 9.6 98 0.1 W 2 9 1 5 1021.5 1021.6 1.4
26/12:47am 9.7 8.3 9.4 98 0.1 W 7 13 4 7 1021.5 1021.6 0.6
26/12:34am 9.5 8.0 9.2 98 0.1 NW 7 13 4 7 1021.7 1021.8 0.2
26/12:30am 9.5 8.0 9.2 98 0.1 NW 7 9 4 5 1021.7 1021.8 0.2
26/12:02am 9.5 7.6 9.2 98 0.1 NNW 9 13 5 7 1022.0 1022.1 0.2
26/12:00am 9.5 7.6 9.2 98 0.1 NNW 9 13 5 7 1022.1 1022.2 0.2
 
Date/Time
EST
Temp
°C
App
Temp
°C
Dew
Point
°C
Rel
Hum
%
Delta-T
°C
Wind Press
QNH
hPa
Press
MSL
hPa
Rain since
9am
mm
Dir  Spd
km/h
Gust
km/h
Spd
kts
Gust
kts
25/11:30pm 9.1 7.1 8.8 98 0.1 NW 9 13 5 7 1022.4 1022.5 0.2
25/11:19pm 9.2 7.3 8.9 98 0.1 NW 9 11 5 6 1022.5 1022.6 0.2
25/11:00pm 9.0 7.0 8.7 98 0.1 NW 9 13 5 7 1022.6 1022.7 0.2
25/10:45pm 9.2 7.3 8.9 98 0.1 NNW 9 11 5 6 1022.7 1022.8 0.2
25/10:30pm 9.1 7.5 8.8 98 0.1 NW 7 9 4 5 1022.7 1022.8 0.2
25/10:27pm 9.2 7.6 8.9 98 0.1 NW 7 9 4 5 1022.7 1022.8 0.2
25/10:21pm 9.3 7.8 9.0 98 0.1 NNW 7 11 4 6 1022.7 1022.8 0.2
25/10:00pm 9.5 7.6 9.2 98 0.1 NW 9 11 5 6 1022.9 1023.0 0.2
25/09:36pm 9.9 9.1 9.6 98 0.2 NW 4 7 2 4 1023.0 1023.1 0.2
25/09:34pm 9.8 8.9 9.3 97 0.2 NW 4 9 2 5 1023.0 1023.1 0.2
25/09:30pm 9.7 8.2 9.2 97 0.2 NW 7 9 4 5 1023.1 1023.2 0.2
25/09:18pm 10.0 8.8 9.5 97 0.2 WNW 6 7 3 4 1023.3 1023.4 0.2
25/09:00pm 10.2 9.8 9.7 97 0.3 NNW 2 6 1 3 1023.3 1023.4 0.2
25/08:58pm 10.2 9.4 9.7 97 0.3 NNW 4 6 2 3 1023.3 1023.4 0.2
25/08:54pm 10.4 9.3 9.9 97 0.3 NNW 6 6 3 3 1023.3 1023.4 0.2
25/08:51pm 10.2 9.0 9.7 97 0.3 NNW 6 7 3 4 1023.3 1023.4 0.2
25/08:44pm 10.0 8.8 9.5 97 0.2 N 6 7 3 4 1023.4 1023.5 0.2
25/08:42pm 10.5 9.4 10.0 97 0.3 N 6 9 3 5 1023.4 1023.5 0.2
25/08:30pm 11.0 10.1 10.5 97 0.3 N 6 9 3 5 1023.5 1023.6 0.2
25/08:09pm 10.8 9.6 10.2 96 0.3 NW 7 11 4 6 1023.6 1023.7 0.2
25/08:00pm 11.1 10.0 10.5 96 0.3 NNW 7 11 4 6 1023.7 1023.8 0.2
25/07:30pm 13.0 12.9 12.1 94 0.5 NNE 4 6 2 3 1023.7 1023.8 0.2
25/07:26pm 13.0 12.8 11.9 93 0.6 NNE 4 6 2 3 1023.7 1023.8 0.2
25/07:05pm 12.9 13.4 11.6 92 0.7 CALM 0 4 0 2 1023.7 1023.8 0.2
25/07:03pm 13.0 13.2 11.7 92 0.7 NNE 2 6 1 3 1023.8 1023.9 0.2
25/07:00pm 13.1 13.3 11.8 92 0.7 NNE 2 7 1 4 1023.8 1023.9 0.2
25/06:41pm 13.2 13.9 12.3 94 0.5 CALM 0 6 0 3 1023.9 1024.0 0.2
25/06:30pm 12.7 12.0 11.4 92 0.7 NNE 6 9 3 5 1023.9 1024.0 0.2
25/06:15pm 12.8 11.6 11.5 92 0.7 ENE 9 13 5 7 1023.8 1023.9 0.2
25/06:00pm 13.1 12.0 11.8 92 0.7 ENE 9 15 5 8 1023.7 1023.8 0.0
25/05:58pm 13.1 11.9 11.7 91 0.7 ENE 9 15 5 8 1023.7 1023.8 0.0
25/05:30pm 13.6 12.6 12.2 91 0.8 ENE 9 13 5 7 1023.8 1023.9 0.0
25/05:00pm 12.9 11.5 10.8 87 1.1 ENE 9 11 5 6 1023.9 1024.0 0.0
25/04:30pm 13.9 13.0 11.4 85 1.3 ENE 7 11 4 6 1024.1 1024.2 0.0
25/04:00pm 14.4 13.0 11.0 80 1.8 NE 9 11 5 6 1024.1 1024.2 0.0
25/03:30pm 15.3 13.5 10.9 75 2.3 NE 11 17 6 9 1024.2 1024.3 0.0
25/03:00pm 15.3 13.0 10.5 73 2.5 NE 13 20 7 11 1024.2 1024.3 0.0
25/02:30pm 15.3 13.4 10.5 73 2.5 NNE 11 17 6 9 1024.4 1024.5 0.0
25/02:00pm 15.9 13.2 10.2 69 3.0 NNE 15 20 8 11 1024.6 1024.7 0.0
25/01:30pm 15.4 13.5 10.6 73 2.5 N 11 17 6 9 1024.9 1025.0 0.0
25/01:00pm 15.4 13.7 11.2 76 2.2 ENE 11 19 6 10 1025.1 1025.2 0.0
25/12:30pm 15.2 13.9 11.4 78 2.0 NE 9 13 5 7 1025.5 1025.6 0.0
25/12:00pm 14.4 14.0 11.2 81 1.7 NNW 4 9 2 5 1026.1 1026.2 0.0
25/11:30am 13.6 14.0 11.3 86 1.2 CALM 0 0 0 0 1026.7 1026.8 0.0
25/11:00am 12.5 12.6 11.4 93 0.6 WNW 2 7 1 4 1027.2 1027.3 0.0
25/10:30am 10.1 8.6 9.2 94 0.4 NW 7 9 4 5 1027.6 1027.7 0.0
25/10:00am 8.7 7.0 8.3 97 0.2 NW 7 11 4 6 1027.8 1027.9 0.0
25/09:30am 8.4 6.8 8.1 98 0.1 W 6 9 3 5 1027.9 1028.0 0.0
25/09:00am 6.7 4.2 6.4 98 0.1 WNW 9 13 5 7 1028.0 1028.1 0.4
25/08:30am 5.6 2.1 5.3 98 0.1 NNW 13 17 7 9 1028.0 1028.1 0.4
25/08:00am 5.4 1.8 5.1 98 0.1 NW 13 17 7 9 1027.9 1028.0 0.4
25/07:51am 5.2 1.2 4.9 98 0.1 NW 15 17 8 9 1027.8 1027.9 0.4
25/07:46am 5.3 1.3 5.0 98 0.1 NW 15 17 8 9 1027.8 1027.9 0.4
25/07:35am 5.3 1.3 5.0 98 0.1 NW 15 17 8 9 1027.8 1027.9 0.4
25/07:30am 5.3 1.7 5.0 98 0.1 NNW 13 17 7 9 1027.8 1027.9 0.4
25/07:01am 5.3 2.1 5.0 98 0.1 NW 11 13 6 7 1027.6 1027.7 0.4
25/07:00am 5.3 2.1 5.0 98 0.1 NW 11 13 6 7 1027.6 1027.7 0.4
25/06:58am 5.3 2.1 5.0 98 0.1 NNW 11 13 6 7 1027.6 1027.7 0.4
25/06:37am 5.5 2.3 5.2 98 0.1 NNW 11 15 6 8 1027.4 1027.5 0.4
25/06:30am 5.6 2.4 5.3 98 0.1 NW 11 13 6 7 1027.4 1027.5 0.4
25/06:00am 5.6 2.4 5.3 98 0.1 NW 11 13 6 7 1027.6 1027.7 0.4
25/05:30am 5.8 3.1 5.5 98 0.1 NW 9 11 5 6 1027.6 1027.7 0.4
25/05:00am 5.9 3.2 5.6 98 0.1 NW 9 13 5 7 1027.6 1027.7 0.4
25/04:30am 6.2 2.8 5.9 98 0.1 NW 13 15 7 8 1027.6 1027.7 0.4
25/04:00am 6.2 3.2 5.9 98 0.1 NW 11 17 6 9 1027.7 1027.8 0.2
25/03:30am 6.6 3.7 6.3 98 0.1 NW 11 15 6 8 1027.9 1028.0 0.2
25/03:00am 7.2 4.0 6.9 98 0.1 NNW 13 15 7 8 1028.3 1028.4 0.2
25/02:30am 6.9 3.6 6.5 97 0.2 NNW 13 15 7 8 1028.6 1028.7 0.2
25/02:00am 7.3 4.5 6.9 97 0.2 NW 11 13 6 7 1028.8 1028.8 0.2
25/01:30am 7.2 4.0 6.9 98 0.1 NW 13 15 7 8 1028.9 1028.9 0.2
25/01:00am 6.8 3.1 6.4 97 0.2 NNW 15 17 8 9 1029.1 1029.1 0.2
25/12:30am 6.9 3.6 6.5 97 0.2 NNW 13 15 7 8 1029.5 1029.5 0.2
25/12:00am 7.2 4.0 6.8 97 0.2 NNW 13 15 7 8 1029.7 1029.7 0.2
 
Date/Time
EST
Temp
°C
App
Temp
°C
Dew
Point
°C
Rel
Hum
%
Delta-T
°C
Wind Press
QNH
hPa
Press
MSL
hPa
Rain since
9am
mm
Dir  Spd
km/h
Gust
km/h
Spd
kts
Gust
kts
24/11:30pm 7.1 3.9 6.7 97 0.2 NW 13 17 7 9 1029.7 1029.7 0.2
24/11:00pm 7.3 4.1 6.9 97 0.2 NW 13 15 7 8 1029.7 1029.7 0.2
24/10:30pm 7.7 4.6 7.1 96 0.3 NW 13 15 7 8 1029.8 1029.8 0.2
24/10:00pm 8.0 4.9 7.4 96 0.3 NW 13 17 7 9 1030.0 1030.0 0.2
24/09:30pm 8.3 5.7 7.7 96 0.3 NW 11 13 6 7 1030.0 1030.0 0.2
24/09:00pm 8.6 5.7 8.0 96 0.3 NW 13 15 7 8 1030.0 1030.0 0.2
24/08:30pm 8.3 5.3 7.7 96 0.3 NW 13 15 7 8 1029.9 1029.9 0.2
24/08:00pm 8.6 6.1 8.0 96 0.3 NW 11 15 6 8 1029.9 1029.9 0.2
24/07:30pm 8.8 6.3 8.0 95 0.4 NW 11 15 6 8 1029.9 1029.9 0.2
24/07:00pm 9.4 7.9 8.5 94 0.4 NNW 6 7 3 4 1029.7 1029.7 0.2
24/06:30pm 9.9 8.8 8.3 90 0.8 NW 4 7 2 4 1029.4 1029.4 0.2
24/06:00pm 10.9 10.6 8.5 85 1.2 CALM 0 0 0 0 1029.2 1029.2 0.2
24/05:30pm 11.3 11.0 8.5 83 1.4 CALM 0 0 0 0 1029.1 1029.1 0.2
24/05:00pm 11.4 10.7 8.6 83 1.4 NE 2 7 1 4 1029.0 1029.0 0.2
24/04:30pm 12.7 10.8 9.0 78 1.9 ENE 9 13 5 7 1028.9 1028.9 0.2
24/04:00pm 13.6 10.9 9.1 74 2.3 ENE 13 17 7 9 1028.6 1028.7 0.2
24/03:30pm 14.1 11.0 8.9 71 2.6 NE 15 19 8 10 1028.9 1028.9 0.2
24/03:00pm 14.5 11.0 8.7 68 2.9 NE 17 20 9 11 1028.9 1028.9 0.2
24/02:30pm 15.2 12.5 8.9 66 3.2 NE 13 19 7 10 1029.1 1029.1 0.2
24/02:00pm 15.3 13.3 8.5 64 3.4 NNE 9 11 5 6 1029.3 1029.3 0.2
24/01:30pm 14.7 12.2 8.2 65 3.3 NE 11 15 6 8 1029.6 1029.6 0.2
24/01:00pm 15.6 13.8 9.3 66 3.2 NNE 9 13 5 7 1029.8 1029.8 0.0
24/12:30pm 15.2 13.5 7.7 61 3.7 NNE 6 9 3 5 1030.1 1030.1 0.0
24/12:00pm 14.6 13.5 6.7 59 3.8 NNW 2 7 1 4 1030.4 1030.4 0.0
24/11:30am 13.2 12.6 7.2 67 2.9 CALM 0 0 0 0 1030.7 1030.7 0.0
24/11:00am 11.2 10.7 7.7 79 1.7 CALM 0 0 0 0 1031.2 1031.2 0.0
24/10:30am 9.8 9.0 6.3 79 1.6 CALM 0 0 0 0 1031.6 1031.6 0.0
24/10:00am 9.2 8.2 7.3 88 0.9 W 2 7 1 4 1031.6 1031.6 0.0
24/09:30am 7.5 4.5 6.1 91 0.6 NW 11 15 6 8 1031.5 1031.5 0.0
24/09:00am 6.2 2.3 5.3 94 0.4 NNW 15 19 8 10 1031.3 1031.3 0.2
24/08:30am 5.1 1.8 4.5 96 0.3 NW 11 15 6 8 1031.3 1031.3 0.2
24/08:00am 4.8 1.1 4.4 97 0.2 NNW 13 15 7 8 1031.3 1031.3 0.2
24/07:30am 4.2 0.8 3.8 97 0.2 NW 11 15 6 8 1031.0 1031.0 0.2
24/07:00am 4.1 0.6 3.7 97 0.2 NW 11 15 6 8 1030.9 1030.9 0.2
24/06:30am 4.1 0.6 3.7 97 0.2 NW 11 15 6 8 1030.6 1030.6 0.2
24/06:00am 4.2 0.0 3.8 97 0.2 NNW 15 19 8 10 1030.5 1030.5 0.2
24/05:30am 4.4 0.6 4.0 97 0.2 NNW 13 15 7 8 1030.4 1030.4 0.2
24/05:00am 4.3 0.5 3.9 97 0.2 NW 13 15 7 8 1030.3 1030.3 0.2
24/04:30am 4.5 1.1 4.1 97 0.2 NW 11 13 6 7 1030.2 1030.2 0.2
24/04:00am 4.6 1.6 4.2 97 0.2 NW 9 13 5 7 1030.1 1030.1 0.2
24/03:30am 4.7 1.4 4.3 97 0.2 NW 11 13 6 7 1030.2 1030.2 0.2
24/03:00am 5.1 1.8 4.7 97 0.2 NNW 11 15 6 8 1030.3 1030.3 0.2
24/02:30am 4.9 2.0 4.5 97 0.2 NNW 9 15 5 8 1030.5 1030.5 0.2
24/02:00am 5.2 2.3 4.8 97 0.2 NW 9 13 5 7 1030.6 1030.6 0.0
24/01:30am 5.6 2.4 5.2 97 0.2 NNW 11 15 6 8 1030.8 1030.8 0.0
24/01:00am 5.6 2.4 5.2 97 0.2 N 11 15 6 8 1030.9 1030.9 0.0
24/12:30am 5.8 3.4 5.4 97 0.2 NW 7 9 4 5 1031.2 1031.2 0.0
24/12:00am 5.9 2.8 5.5 97 0.2 NNW 11 13 6 7 1031.2 1031.2 0.0
 
Date/Time
EST
Temp
°C
App
Temp
°C
Dew
Point
°C
Rel
Hum
%
Delta-T
°C
Wind Press
QNH
hPa
Press
MSL
hPa
Rain since
9am
mm
Dir  Spd
km/h
Gust
km/h
Spd
kts
Gust
kts
23/11:30pm 6.0 3.3 5.6 97 0.2 NNW 9 13 5 7 1031.3 1031.3 0.0
23/11:00pm 6.5 4.2 5.9 96 0.3 N 7 11 4 6 1031.3 1031.3 0.0
23/10:30pm 6.8 4.8 6.2 96 0.3 N 6 9 3 5 1031.4 1031.4 0.0
23/10:00pm 7.2 5.1 6.6 96 0.3 N 7 11 4 6 1031.4 1031.4 0.0
23/09:30pm 7.5 5.7 7.1 97 0.2 NW 6 7 3 4 1031.4 1031.4 0.0
23/09:00pm 7.5 5.7 7.1 97 0.2 NNE 6 9 3 5 1031.2 1031.2 0.0
23/08:30pm 7.6 5.2 7.0 96 0.3 NNW 9 13 5 7 1031.1 1031.1 0.0
23/08:00pm 7.7 5.3 7.1 96 0.3 N 9 11 5 6 1031.0 1031.0 0.0
23/07:30pm 8.0 5.7 7.4 96 0.3 NNW 9 11 5 6 1030.8 1030.8 0.0
23/07:00pm 8.2 6.2 7.3 94 0.4 NW 7 9 4 5 1030.7 1030.7 0.0
23/06:30pm 9.4 7.8 8.2 92 0.6 NW 6 6 3 3 1030.5 1030.5 0.0
23/06:00pm 10.6 10.1 7.8 83 1.3 CALM 0 0 0 0 1030.4 1030.4 0.0
23/05:30pm 11.3 10.0 7.8 79 1.7 NNE 4 7 2 4 1030.3 1030.3 0.0
23/05:00pm 12.2 10.2 7.3 72 2.4 NNE 7 9 4 5 1030.2 1030.2 0.0
23/04:30pm 12.9 11.1 7.8 71 2.5 NE 7 11 4 6 1030.2 1030.2 0.0
23/04:00pm 13.6 10.6 7.6 67 2.9 NE 13 15 7 8 1030.1 1030.1 0.0
23/03:30pm 14.5 11.8 7.5 63 3.5 NE 11 15 6 8 1030.2 1030.2 0.0
23/03:00pm 14.3 11.6 7.4 63 3.4 NNE 11 15 6 8 1030.2 1030.2 0.0

Other formats

Comma delimited format used in spreadsheet applications
http://www.bom.gov.au/fwo/IDT60801/IDT60801.95981.axf

JavaScript Object Notation format (JSON) in row-major order
http://www.bom.gov.au/fwo/IDT60801/IDT60801.95981.json

Data quality

Most of these data are generated automatically and are frequently updated. Quality checks on data are not normally performed. It is possible for incorrect values to appear. Refer to information at About Latest Weather Observations and please check the disclaimer before using these data.